sensor_id;sensor_type;location;lat;lon;timestamp;temperature;humidity
30594;DHT22;33199;47.590;8.300;2023-04-21T00:02:02;12.40;76.50
30594;DHT22;33199;47.590;8.300;2023-04-21T00:04:28;12.40;76.60
30594;DHT22;33199;47.590;8.300;2023-04-21T00:06:53;12.40;76.30
30594;DHT22;33199;47.590;8.300;2023-04-21T00:09:20;12.40;76.50
30594;DHT22;33199;47.590;8.300;2023-04-21T00:11:46;12.40;76.40
30594;DHT22;33199;47.590;8.300;2023-04-21T00:14:11;12.40;76.50
30594;DHT22;33199;47.590;8.300;2023-04-21T00:16:37;12.40;76.50
30594;DHT22;33199;47.590;8.300;2023-04-21T00:19:03;12.40;76.40
30594;DHT22;33199;47.590;8.300;2023-04-21T00:21:32;12.40;76.60
30594;DHT22;33199;47.590;8.300;2023-04-21T00:23:57;12.40;76.70
30594;DHT22;33199;47.590;8.300;2023-04-21T00:26:24;12.40;76.40
30594;DHT22;33199;47.590;8.300;2023-04-21T00:28:49;12.40;76.40
30594;DHT22;33199;47.590;8.300;2023-04-21T00:31:15;12.40;76.40
30594;DHT22;33199;47.590;8.300;2023-04-21T00:33:41;12.30;76.40
30594;DHT22;33199;47.590;8.300;2023-04-21T00:36:06;12.30;77.10
30594;DHT22;33199;47.590;8.300;2023-04-21T00:38:32;12.30;76.40
30594;DHT22;33199;47.590;8.300;2023-04-21T00:40:58;12.30;76.60
30594;DHT22;33199;47.590;8.300;2023-04-21T00:43:24;12.30;76.30
30594;DHT22;33199;47.590;8.300;2023-04-21T00:45:52;12.30;76.30
30594;DHT22;33199;47.590;8.300;2023-04-21T00:48:18;12.30;76.60
30594;DHT22;33199;47.590;8.300;2023-04-21T00:50:44;12.30;76.30
30594;DHT22;33199;47.590;8.300;2023-04-21T00:53:11;12.30;76.30
30594;DHT22;33199;47.590;8.300;2023-04-21T00:55:37;12.30;76.30
30594;DHT22;33199;47.590;8.300;2023-04-21T00:58:03;12.30;76.30
30594;DHT22;33199;47.590;8.300;2023-04-21T01:00:29;12.30;76.30
30594;DHT22;33199;47.590;8.300;2023-04-21T01:02:56;12.30;76.20
30594;DHT22;33199;47.590;8.300;2023-04-21T01:05:22;12.30;76.40
30594;DHT22;33199;47.590;8.300;2023-04-21T01:07:48;12.30;76.20
30594;DHT22;33199;47.590;8.300;2023-04-21T01:10:14;12.30;76.10
30594;DHT22;33199;47.590;8.300;2023-04-21T01:12:44;12.30;76.20
30594;DHT22;33199;47.590;8.300;2023-04-21T01:15:12;12.30;76.20
30594;DHT22;33199;47.590;8.300;2023-04-21T01:17:38;12.30;76.10
30594;DHT22;33199;47.590;8.300;2023-04-21T01:20:07;12.30;76.30
30594;DHT22;33199;47.590;8.300;2023-04-21T01:22:36;12.30;76.20
30594;DHT22;33199;47.590;8.300;2023-04-21T01:25:02;12.30;76.30
30594;DHT22;33199;47.590;8.300;2023-04-21T01:27:28;12.30;76.20
30594;DHT22;33199;47.590;8.300;2023-04-21T01:29:54;12.30;76.30
30594;DHT22;33199;47.590;8.300;2023-04-21T01:32:25;12.30;76.30
30594;DHT22;33199;47.590;8.300;2023-04-21T01:34:53;12.30;76.10
30594;DHT22;33199;47.590;8.300;2023-04-21T01:37:21;12.30;76.40
30594;DHT22;33199;47.590;8.300;2023-04-21T01:39:51;12.30;76.20
30594;DHT22;33199;47.590;8.300;2023-04-21T01:42:19;12.30;76.20
30594;DHT22;33199;47.590;8.300;2023-04-21T01:44:45;12.30;76.20
30594;DHT22;33199;47.590;8.300;2023-04-21T01:47:11;12.30;76.20
30594;DHT22;33199;47.590;8.300;2023-04-21T01:49:37;12.20;76.10
30594;DHT22;33199;47.590;8.300;2023-04-21T01:52:03;12.20;76.10
30594;DHT22;33199;47.590;8.300;2023-04-21T01:54:29;12.20;76.00
30594;DHT22;33199;47.590;8.300;2023-04-21T01:56:54;12.20;75.90
30594;DHT22;33199;47.590;8.300;2023-04-21T01:59:20;12.20;75.90
30594;DHT22;33199;47.590;8.300;2023-04-21T02:01:46;12.20;76.10
30594;DHT22;33199;47.590;8.300;2023-04-21T02:04:12;12.20;75.90
30594;DHT22;33199;47.590;8.300;2023-04-21T02:06:37;12.20;76.10
30594;DHT22;33199;47.590;8.300;2023-04-21T02:09:05;12.20;75.90
30594;DHT22;33199;47.590;8.300;2023-04-21T02:11:30;12.20;76.20
30594;DHT22;33199;47.590;8.300;2023-04-21T02:13:56;12.20;76.10
30594;DHT22;33199;47.590;8.300;2023-04-21T02:16:22;12.20;75.90
30594;DHT22;33199;47.590;8.300;2023-04-21T02:18:57;12.20;76.00
30594;DHT22;33199;47.590;8.300;2023-04-21T02:21:24;12.20;75.90
30594;DHT22;33199;47.590;8.300;2023-04-21T02:23:51;12.20;75.80
30594;DHT22;33199;47.590;8.300;2023-04-21T02:26:17;12.20;75.90
30594;DHT22;33199;47.590;8.300;2023-04-21T02:28:43;12.20;75.80
30594;DHT22;33199;47.590;8.300;2023-04-21T02:31:09;12.20;76.60
30594;DHT22;33199;47.590;8.300;2023-04-21T02:33:36;12.20;76.80
30594;DHT22;33199;47.590;8.300;2023-04-21T02:36:02;12.20;75.80
30594;DHT22;33199;47.590;8.300;2023-04-21T02:38:27;12.20;75.90
30594;DHT22;33199;47.590;8.300;2023-04-21T02:40:53;12.20;75.90
30594;DHT22;33199;47.590;8.300;2023-04-21T02:43:19;12.20;75.90
30594;DHT22;33199;47.590;8.300;2023-04-21T02:45:44;12.20;75.70
30594;DHT22;33199;47.590;8.300;2023-04-21T02:48:12;12.10;75.90
30594;DHT22;33199;47.590;8.300;2023-04-21T02:50:38;12.20;76.00
30594;DHT22;33199;47.590;8.300;2023-04-21T02:53:04;12.20;75.90
30594;DHT22;33199;47.590;8.300;2023-04-21T02:55:30;12.20;75.90
30594;DHT22;33199;47.590;8.300;2023-04-21T02:57:56;12.20;75.90
30594;DHT22;33199;47.590;8.300;2023-04-21T03:00:21;12.10;75.90
30594;DHT22;33199;47.590;8.300;2023-04-21T03:02:47;12.20;75.90
30594;DHT22;33199;47.590;8.300;2023-04-21T03:05:15;12.20;75.70
30594;DHT22;33199;47.590;8.300;2023-04-21T03:07:43;12.10;75.60
30594;DHT22;33199;47.590;8.300;2023-04-21T03:10:09;12.10;75.70
30594;DHT22;33199;47.590;8.300;2023-04-21T03:12:35;12.10;75.80
30594;DHT22;33199;47.590;8.300;2023-04-21T03:15:01;12.10;75.50
30594;DHT22;33199;47.590;8.300;2023-04-21T03:17:26;12.10;75.70
30594;DHT22;33199;47.590;8.300;2023-04-21T03:19:52;12.10;75.60
30594;DHT22;33199;47.590;8.300;2023-04-21T03:22:17;12.10;75.90
30594;DHT22;33199;47.590;8.300;2023-04-21T03:24:43;12.10;75.80
30594;DHT22;33199;47.590;8.300;2023-04-21T03:27:08;12.10;75.60
30594;DHT22;33199;47.590;8.300;2023-04-21T03:29:34;12.10;75.50
30594;DHT22;33199;47.590;8.300;2023-04-21T03:32:00;12.10;75.50
30594;DHT22;33199;47.590;8.300;2023-04-21T03:34:26;12.10;75.50
30594;DHT22;33199;47.590;8.300;2023-04-21T03:36:52;12.10;75.60
30594;DHT22;33199;47.590;8.300;2023-04-21T03:39:17;12.10;75.50
30594;DHT22;33199;47.590;8.300;2023-04-21T03:41:43;12.10;75.50
30594;DHT22;33199;47.590;8.300;2023-04-21T03:44:08;12.10;75.50
30594;DHT22;33199;47.590;8.300;2023-04-21T03:46:34;12.10;75.50
30594;DHT22;33199;47.590;8.300;2023-04-21T03:48:59;12.10;75.50
30594;DHT22;33199;47.590;8.300;2023-04-21T03:51:25;12.10;75.60
30594;DHT22;33199;47.590;8.300;2023-04-21T03:53:51;12.10;75.40
30594;DHT22;33199;47.590;8.300;2023-04-21T03:56:17;12.10;75.60
30594;DHT22;33199;47.590;8.300;2023-04-21T03:58:44;12.10;75.60
30594;DHT22;33199;47.590;8.300;2023-04-21T04:01:10;12.00;75.40
30594;DHT22;33199;47.590;8.300;2023-04-21T04:03:35;12.10;75.40
30594;DHT22;33199;47.590;8.300;2023-04-21T04:06:01;12.10;75.50
30594;DHT22;33199;47.590;8.300;2023-04-21T04:08:28;12.10;75.40
30594;DHT22;33199;47.590;8.300;2023-04-21T04:10:55;12.10;75.40
30594;DHT22;33199;47.590;8.300;2023-04-21T04:13:21;12.00;75.40
30594;DHT22;33199;47.590;8.300;2023-04-21T04:15:47;12.10;75.40
30594;DHT22;33199;47.590;8.300;2023-04-21T04:18:12;12.10;75.40
30594;DHT22;33199;47.590;8.300;2023-04-21T04:20:38;12.10;75.30
30594;DHT22;33199;47.590;8.300;2023-04-21T04:23:04;12.00;75.30
30594;DHT22;33199;47.590;8.300;2023-04-21T04:25:29;12.00;75.40
30594;DHT22;33199;47.590;8.300;2023-04-21T04:27:55;12.00;75.40
30594;DHT22;33199;47.590;8.300;2023-04-21T04:30:21;12.00;75.50
30594;DHT22;33199;47.590;8.300;2023-04-21T04:32:48;12.00;75.40
30594;DHT22;33199;47.590;8.300;2023-04-21T04:35:15;12.00;75.50
30594;DHT22;33199;47.590;8.300;2023-04-21T04:37:40;12.00;75.40
30594;DHT22;33199;47.590;8.300;2023-04-21T04:40:06;12.00;70.20
30594;DHT22;33199;47.590;8.300;2023-04-21T04:42:36;11.70;67.40
30594;DHT22;33199;47.590;8.300;2023-04-21T04:45:04;11.60;68.60
30594;DHT22;33199;47.590;8.300;2023-04-21T04:47:30;11.60;69.80
30594;DHT22;33199;47.590;8.300;2023-04-21T04:49:56;11.50;70.30
30594;DHT22;33199;47.590;8.300;2023-04-21T04:52:21;11.50;71.10
30594;DHT22;33199;47.590;8.300;2023-04-21T04:54:47;11.60;71.40
30594;DHT22;33199;47.590;8.300;2023-04-21T04:57:12;11.60;71.90
30594;DHT22;33199;47.590;8.300;2023-04-21T04:59:38;11.60;72.40
30594;DHT22;33199;47.590;8.300;2023-04-21T05:02:03;11.60;72.60
30594;DHT22;33199;47.590;8.300;2023-04-21T05:04:29;11.60;72.50
30594;DHT22;33199;47.590;8.300;2023-04-21T05:06:55;11.60;72.70
30594;DHT22;33199;47.590;8.300;2023-04-21T05:09:20;11.70;72.80
30594;DHT22;33199;47.590;8.300;2023-04-21T05:11:46;11.70;72.90
30594;DHT22;33199;47.590;8.300;2023-04-21T05:14:12;11.70;73.00
30594;DHT22;33199;47.590;8.300;2023-04-21T05:16:37;11.70;73.00
30594;DHT22;33199;47.590;8.300;2023-04-21T05:19:03;11.70;73.10
30594;DHT22;33199;47.590;8.300;2023-04-21T05:21:29;11.70;73.20
30594;DHT22;33199;47.590;8.300;2023-04-21T05:23:56;11.70;73.10
30594;DHT22;33199;47.590;8.300;2023-04-21T05:26:23;11.70;73.20
30594;DHT22;33199;47.590;8.300;2023-04-21T05:28:49;11.70;73.30
30594;DHT22;33199;47.590;8.300;2023-04-21T05:31:14;11.70;73.30
30594;DHT22;33199;47.590;8.300;2023-04-21T05:33:40;11.70;73.40
30594;DHT22;33199;47.590;8.300;2023-04-21T05:36:06;11.70;73.40
30594;DHT22;33199;47.590;8.300;2023-04-21T05:38:33;11.70;73.40
30594;DHT22;33199;47.590;8.300;2023-04-21T05:40:59;11.70;73.40
30594;DHT22;33199;47.590;8.300;2023-04-21T05:43:25;11.70;73.40
30594;DHT22;33199;47.590;8.300;2023-04-21T05:45:50;11.70;73.40
30594;DHT22;33199;47.590;8.300;2023-04-21T05:48:16;11.70;73.40
30594;DHT22;33199;47.590;8.300;2023-04-21T05:50:41;11.70;73.40
30594;DHT22;33199;47.590;8.300;2023-04-21T05:53:07;11.70;73.40
30594;DHT22;33199;47.590;8.300;2023-04-21T05:55:33;11.70;73.50
30594;DHT22;33199;47.590;8.300;2023-04-21T05:57:59;11.70;73.50
30594;DHT22;33199;47.590;8.300;2023-04-21T06:00:25;11.70;73.50
30594;DHT22;33199;47.590;8.300;2023-04-21T06:02:50;11.70;73.40
30594;DHT22;33199;47.590;8.300;2023-04-21T06:05:16;11.70;73.40
30594;DHT22;33199;47.590;8.300;2023-04-21T06:07:42;11.70;73.50
30594;DHT22;33199;47.590;8.300;2023-04-21T06:10:08;11.70;73.40
30594;DHT22;33199;47.590;8.300;2023-04-21T06:12:33;11.70;73.60
30594;DHT22;33199;47.590;8.300;2023-04-21T06:14:59;11.60;73.50
30594;DHT22;33199;47.590;8.300;2023-04-21T06:17:24;11.70;73.50
30594;DHT22;33199;47.590;8.300;2023-04-21T06:19:50;11.70;73.50
30594;DHT22;33199;47.590;8.300;2023-04-21T06:22:21;11.70;73.40
30594;DHT22;33199;47.590;8.300;2023-04-21T06:24:46;11.70;73.60
30594;DHT22;33199;47.590;8.300;2023-04-21T06:27:12;11.70;73.50
30594;DHT22;33199;47.590;8.300;2023-04-21T06:29:38;11.70;73.60
30594;DHT22;33199;47.590;8.300;2023-04-21T06:32:04;11.70;73.40
30594;DHT22;33199;47.590;8.300;2023-04-21T06:34:30;11.70;74.30
30594;DHT22;33199;47.590;8.300;2023-04-21T06:36:56;11.70;73.30
30594;DHT22;33199;47.590;8.300;2023-04-21T06:39:21;11.60;73.40
30594;DHT22;33199;47.590;8.300;2023-04-21T06:41:47;11.70;73.50
30594;DHT22;33199;47.590;8.300;2023-04-21T06:44:12;11.70;73.60
30594;DHT22;33199;47.590;8.300;2023-04-21T06:46:41;11.60;73.60
30594;DHT22;33199;47.590;8.300;2023-04-21T06:49:07;11.60;73.50
30594;DHT22;33199;47.590;8.300;2023-04-21T06:51:32;11.70;73.50
30594;DHT22;33199;47.590;8.300;2023-04-21T06:53:58;11.70;73.60
30594;DHT22;33199;47.590;8.300;2023-04-21T06:56:26;11.60;73.60
30594;DHT22;33199;47.590;8.300;2023-04-21T06:58:52;11.60;73.70
30594;DHT22;33199;47.590;8.300;2023-04-21T07:01:18;11.60;73.50
30594;DHT22;33199;47.590;8.300;2023-04-21T07:03:43;11.60;73.60
30594;DHT22;33199;47.590;8.300;2023-04-21T07:06:09;11.60;73.60
30594;DHT22;33199;47.590;8.300;2023-04-21T07:08:36;11.60;73.50
30594;DHT22;33199;47.590;8.300;2023-04-21T07:11:01;11.60;73.50
30594;DHT22;33199;47.590;8.300;2023-04-21T07:13:27;11.70;73.60
30594;DHT22;33199;47.590;8.300;2023-04-21T07:15:53;11.60;73.60
30594;DHT22;33199;47.590;8.300;2023-04-21T07:18:18;11.60;73.50
30594;DHT22;33199;47.590;8.300;2023-04-21T07:20:44;11.60;73.50
30594;DHT22;33199;47.590;8.300;2023-04-21T07:23:10;11.70;73.50
30594;DHT22;33199;47.590;8.300;2023-04-21T07:25:36;11.60;73.40
30594;DHT22;33199;47.590;8.300;2023-04-21T07:28:02;11.60;73.40
30594;DHT22;33199;47.590;8.300;2023-04-21T07:30:29;11.60;73.50
30594;DHT22;33199;47.590;8.300;2023-04-21T07:32:56;11.60;73.40
30594;DHT22;33199;47.590;8.300;2023-04-21T07:35:22;11.60;71.90
30594;DHT22;33199;47.590;8.300;2023-04-21T07:37:47;11.40;68.10
30594;DHT22;33199;47.590;8.300;2023-04-21T07:40:13;11.30;68.10
30594;DHT22;33199;47.590;8.300;2023-04-21T07:42:39;11.20;69.40
30594;DHT22;33199;47.590;8.300;2023-04-21T07:45:05;11.20;69.90
30594;DHT22;33199;47.590;8.300;2023-04-21T07:47:31;11.20;70.60
30594;DHT22;33199;47.590;8.300;2023-04-21T07:49:57;11.20;70.90
30594;DHT22;33199;47.590;8.300;2023-04-21T07:52:23;11.20;71.40
30594;DHT22;33199;47.590;8.300;2023-04-21T07:54:49;11.20;71.70
30594;DHT22;33199;47.590;8.300;2023-04-21T07:57:15;11.30;71.80
30594;DHT22;33199;47.590;8.300;2023-04-21T07:59:40;11.30;72.10
30594;DHT22;33199;47.590;8.300;2023-04-21T08:02:07;11.30;72.10
30594;DHT22;33199;47.590;8.300;2023-04-21T08:04:33;11.30;72.20
30594;DHT22;33199;47.590;8.300;2023-04-21T08:06:58;11.30;72.10
30594;DHT22;33199;47.590;8.300;2023-04-21T08:09:25;11.40;72.20
30594;DHT22;33199;47.590;8.300;2023-04-21T08:11:50;11.40;72.10
30594;DHT22;33199;47.590;8.300;2023-04-21T08:14:16;11.40;72.10
30594;DHT22;33199;47.590;8.300;2023-04-21T08:16:42;11.40;72.10
30594;DHT22;33199;47.590;8.300;2023-04-21T08:19:08;11.40;72.00
30594;DHT22;33199;47.590;8.300;2023-04-21T08:21:34;11.40;72.10
30594;DHT22;33199;47.590;8.300;2023-04-21T08:24:00;11.40;72.00
30594;DHT22;33199;47.590;8.300;2023-04-21T08:26:26;11.40;71.90
30594;DHT22;33199;47.590;8.300;2023-04-21T08:28:55;11.40;72.00
30594;DHT22;33199;47.590;8.300;2023-04-21T08:31:21;11.50;72.00
30594;DHT22;33199;47.590;8.300;2023-04-21T08:33:46;11.40;72.10
30594;DHT22;33199;47.590;8.300;2023-04-21T08:36:12;11.40;72.00
30594;DHT22;33199;47.590;8.300;2023-04-21T08:38:40;11.50;72.20
30594;DHT22;33199;47.590;8.300;2023-04-21T08:41:06;11.50;72.30
30594;DHT22;33199;47.590;8.300;2023-04-21T08:43:32;11.50;72.20
30594;DHT22;33199;47.590;8.300;2023-04-21T08:45:58;11.50;72.20
30594;DHT22;33199;47.590;8.300;2023-04-21T08:48:25;11.40;72.20
30594;DHT22;33199;47.590;8.300;2023-04-21T08:50:52;11.40;72.50
30594;DHT22;33199;47.590;8.300;2023-04-21T08:53:18;11.50;72.40
30594;DHT22;33199;47.590;8.300;2023-04-21T08:55:48;11.40;72.30
30594;DHT22;33199;47.590;8.300;2023-04-21T08:58:16;11.50;72.50
30594;DHT22;33199;47.590;8.300;2023-04-21T09:00:41;11.50;72.60
30594;DHT22;33199;47.590;8.300;2023-04-21T09:03:07;11.40;72.50
30594;DHT22;33199;47.590;8.300;2023-04-21T09:05:33;11.40;72.70
30594;DHT22;33199;47.590;8.300;2023-04-21T09:08:09;11.40;72.60
30594;DHT22;33199;47.590;8.300;2023-04-21T09:10:48;11.50;72.60
30594;DHT22;33199;47.590;8.300;2023-04-21T09:13:15;11.50;72.90
30594;DHT22;33199;47.590;8.300;2023-04-21T09:15:46;11.50;72.90
30594;DHT22;33199;47.590;8.300;2023-04-21T09:18:26;11.50;72.90
30594;DHT22;33199;47.590;8.300;2023-04-21T09:23:30;11.40;73.10
30594;DHT22;33199;47.590;8.300;2023-04-21T09:25:55;11.40;73.20
30594;DHT22;33199;47.590;8.300;2023-04-21T09:28:21;11.40;73.30
30594;DHT22;33199;47.590;8.300;2023-04-21T09:30:54;11.40;73.20
30594;DHT22;33199;47.590;8.300;2023-04-21T09:33:20;11.40;73.40
30594;DHT22;33199;47.590;8.300;2023-04-21T09:35:46;11.40;73.30
30594;DHT22;33199;47.590;8.300;2023-04-21T09:38:12;11.50;73.40
30594;DHT22;33199;47.590;8.300;2023-04-21T09:40:38;11.40;73.40
30594;DHT22;33199;47.590;8.300;2023-04-21T09:43:05;11.40;73.50
30594;DHT22;33199;47.590;8.300;2023-04-21T09:45:31;11.40;73.40
30594;DHT22;33199;47.590;8.300;2023-04-21T09:47:59;11.40;73.40
30594;DHT22;33199;47.590;8.300;2023-04-21T09:50:28;11.40;73.40
30594;DHT22;33199;47.590;8.300;2023-04-21T09:52:57;11.50;73.40
30594;DHT22;33199;47.590;8.300;2023-04-21T09:55:29;11.50;73.50
30594;DHT22;33199;47.590;8.300;2023-04-21T09:57:58;11.50;73.40
30594;DHT22;33199;47.590;8.300;2023-04-21T10:00:28;11.50;73.40
30594;DHT22;33199;47.590;8.300;2023-04-21T10:02:57;11.50;73.50
30594;DHT22;33199;47.590;8.300;2023-04-21T10:05:24;11.40;73.40
30594;DHT22;33199;47.590;8.300;2023-04-21T10:07:51;11.50;73.50
30594;DHT22;33199;47.590;8.300;2023-04-21T10:10:25;11.40;73.40
30594;DHT22;33199;47.590;8.300;2023-04-21T10:12:51;11.50;73.50
30594;DHT22;33199;47.590;8.300;2023-04-21T10:15:38;11.50;73.50
30594;DHT22;33199;47.590;8.300;2023-04-21T10:21:01;11.50;73.40
30594;DHT22;33199;47.590;8.300;2023-04-21T10:26:10;11.50;73.30
30594;DHT22;33199;47.590;8.300;2023-04-21T10:28:45;11.50;73.30
30594;DHT22;33199;47.590;8.300;2023-04-21T10:31:49;11.50;74.20
30594;DHT22;33199;47.590;8.300;2023-04-21T10:39:30;11.50;73.30
30594;DHT22;33199;47.590;8.300;2023-04-21T10:42:26;11.50;73.40
30594;DHT22;33199;47.590;8.300;2023-04-21T10:49:57;11.50;73.40
30594;DHT22;33199;47.590;8.300;2023-04-21T10:52:30;11.50;73.40
30594;DHT22;33199;47.590;8.300;2023-04-21T10:57:23;11.60;73.40
30594;DHT22;33199;47.590;8.300;2023-04-21T10:59:48;11.60;73.50
30594;DHT22;33199;47.590;8.300;2023-04-21T11:02:16;11.60;73.50
30594;DHT22;33199;47.590;8.300;2023-04-21T11:04:43;11.60;73.40
30594;DHT22;33199;47.590;8.300;2023-04-21T11:07:17;11.60;73.40
30594;DHT22;33199;47.590;8.300;2023-04-21T11:09:45;11.60;73.50
30594;DHT22;33199;47.590;8.300;2023-04-21T11:12:17;11.60;73.40
30594;DHT22;33199;47.590;8.300;2023-04-21T11:14:44;11.60;73.50
30594;DHT22;33199;47.590;8.300;2023-04-21T11:17:14;11.60;73.40
30594;DHT22;33199;47.590;8.300;2023-04-21T11:19:41;11.60;73.40
30594;DHT22;33199;47.590;8.300;2023-04-21T11:22:09;11.60;73.40
30594;DHT22;33199;47.590;8.300;2023-04-21T11:24:34;11.60;73.50
30594;DHT22;33199;47.590;8.300;2023-04-21T11:27:00;11.60;73.40
30594;DHT22;33199;47.590;8.300;2023-04-21T11:29:26;11.60;73.50
30594;DHT22;33199;47.590;8.300;2023-04-21T11:31:54;11.60;73.40
30594;DHT22;33199;47.590;8.300;2023-04-21T11:34:21;11.70;73.40
30594;DHT22;33199;47.590;8.300;2023-04-21T11:36:48;11.60;73.40
30594;DHT22;33199;47.590;8.300;2023-04-21T11:39:16;11.60;73.40
30594;DHT22;33199;47.590;8.300;2023-04-21T11:41:46;11.70;73.40
30594;DHT22;33199;47.590;8.300;2023-04-21T11:44:12;11.70;73.40
30594;DHT22;33199;47.590;8.300;2023-04-21T11:46:45;11.70;73.40
30594;DHT22;33199;47.590;8.300;2023-04-21T11:49:11;11.70;73.50
30594;DHT22;33199;47.590;8.300;2023-04-21T11:51:40;11.70;73.50
30594;DHT22;33199;47.590;8.300;2023-04-21T11:54:13;11.70;73.40
30594;DHT22;33199;47.590;8.300;2023-04-21T11:56:39;11.70;73.50
30594;DHT22;33199;47.590;8.300;2023-04-21T11:59:10;11.70;73.40
30594;DHT22;33199;47.590;8.300;2023-04-21T12:02:02;11.70;73.40
30594;DHT22;33199;47.590;8.300;2023-04-21T12:04:28;11.70;73.40
30594;DHT22;33199;47.590;8.300;2023-04-21T12:07:00;11.70;73.50
30594;DHT22;33199;47.590;8.300;2023-04-21T12:09:27;11.70;73.40
30594;DHT22;33199;47.590;8.300;2023-04-21T12:11:55;11.70;73.50
30594;DHT22;33199;47.590;8.300;2023-04-21T12:14:23;11.80;73.50
30594;DHT22;33199;47.590;8.300;2023-04-21T12:16:51;11.70;73.50
30594;DHT22;33199;47.590;8.300;2023-04-21T12:21:59;11.70;73.40
30594;DHT22;33199;47.590;8.300;2023-04-21T12:24:25;11.70;73.40
30594;DHT22;33199;47.590;8.300;2023-04-21T12:26:51;11.80;73.50
30594;DHT22;33199;47.590;8.300;2023-04-21T12:29:17;11.80;73.50
30594;DHT22;33199;47.590;8.300;2023-04-21T12:31:42;11.70;73.40
30594;DHT22;33199;47.590;8.300;2023-04-21T12:34:08;11.80;73.60
30594;DHT22;33199;47.590;8.300;2023-04-21T12:36:34;11.80;73.50
30594;DHT22;33199;47.590;8.300;2023-04-21T12:38:59;11.80;73.50
30594;DHT22;33199;47.590;8.300;2023-04-21T12:41:25;11.80;73.50
30594;DHT22;33199;47.590;8.300;2023-04-21T12:43:51;11.80;73.50
30594;DHT22;33199;47.590;8.300;2023-04-21T12:46:16;11.80;73.40
30594;DHT22;33199;47.590;8.300;2023-04-21T12:48:42;11.80;73.60
30594;DHT22;33199;47.590;8.300;2023-04-21T12:51:09;11.80;73.40
30594;DHT22;33199;47.590;8.300;2023-04-21T12:53:34;11.80;73.40
30594;DHT22;33199;47.590;8.300;2023-04-21T12:56:01;11.80;73.40
30594;DHT22;33199;47.590;8.300;2023-04-21T12:58:27;11.80;73.30
30594;DHT22;33199;47.590;8.300;2023-04-21T13:00:53;11.80;73.40
30594;DHT22;33199;47.590;8.300;2023-04-21T13:03:19;11.80;73.40
30594;DHT22;33199;47.590;8.300;2023-04-21T13:05:45;11.90;73.50
30594;DHT22;33199;47.590;8.300;2023-04-21T13:08:11;11.80;73.50
30594;DHT22;33199;47.590;8.300;2023-04-21T13:10:36;11.80;73.50
30594;DHT22;33199;47.590;8.300;2023-04-21T13:13:02;11.80;73.50
30594;DHT22;33199;47.590;8.300;2023-04-21T13:15:28;11.90;73.60
30594;DHT22;33199;47.590;8.300;2023-04-21T13:17:53;11.80;73.60
30594;DHT22;33199;47.590;8.300;2023-04-21T13:20:19;11.80;73.50
30594;DHT22;33199;47.590;8.300;2023-04-21T13:22:45;11.90;73.70
30594;DHT22;33199;47.590;8.300;2023-04-21T13:25:11;11.80;73.60
30594;DHT22;33199;47.590;8.300;2023-04-21T13:27:37;11.80;73.70
30594;DHT22;33199;47.590;8.300;2023-04-21T13:30:11;11.90;73.70
30594;DHT22;33199;47.590;8.300;2023-04-21T13:32:38;11.90;73.70
30594;DHT22;33199;47.590;8.300;2023-04-21T13:35:04;11.90;73.70
30594;DHT22;33199;47.590;8.300;2023-04-21T13:37:34;11.80;73.70
30594;DHT22;33199;47.590;8.300;2023-04-21T13:40:00;11.90;73.70
30594;DHT22;33199;47.590;8.300;2023-04-21T13:42:26;11.90;73.70
30594;DHT22;33199;47.590;8.300;2023-04-21T13:44:52;11.90;73.70
30594;DHT22;33199;47.590;8.300;2023-04-21T13:47:17;11.90;73.80
30594;DHT22;33199;47.590;8.300;2023-04-21T13:49:43;11.90;73.80
30594;DHT22;33199;47.590;8.300;2023-04-21T13:52:10;11.90;73.70
30594;DHT22;33199;47.590;8.300;2023-04-21T13:54:36;11.90;73.70
30594;DHT22;33199;47.590;8.300;2023-04-21T13:57:02;11.90;73.70
30594;DHT22;33199;47.590;8.300;2023-04-21T13:59:28;11.90;73.80
30594;DHT22;33199;47.590;8.300;2023-04-21T14:01:53;11.90;73.70
30594;DHT22;33199;47.590;8.300;2023-04-21T14:04:19;11.90;73.70
30594;DHT22;33199;47.590;8.300;2023-04-21T14:06:45;11.90;73.80
30594;DHT22;33199;47.590;8.300;2023-04-21T14:09:11;11.90;73.70
30594;DHT22;33199;47.590;8.300;2023-04-21T14:11:37;11.90;73.70
30594;DHT22;33199;47.590;8.300;2023-04-21T14:14:02;11.90;73.80
30594;DHT22;33199;47.590;8.300;2023-04-21T14:16:28;11.90;73.80
30594;DHT22;33199;47.590;8.300;2023-04-21T14:18:54;11.90;73.80
30594;DHT22;33199;47.590;8.300;2023-04-21T14:21:19;11.90;73.80
30594;DHT22;33199;47.590;8.300;2023-04-21T14:23:45;11.90;73.80
30594;DHT22;33199;47.590;8.300;2023-04-21T14:26:11;11.90;73.70
30594;DHT22;33199;47.590;8.300;2023-04-21T14:28:37;11.90;73.70
30594;DHT22;33199;47.590;8.300;2023-04-21T14:31:02;11.90;73.80
30594;DHT22;33199;47.590;8.300;2023-04-21T14:33:28;12.00;73.80
30594;DHT22;33199;47.590;8.300;2023-04-21T14:35:54;12.00;73.70
30594;DHT22;33199;47.590;8.300;2023-04-21T14:38:20;12.00;73.80
30594;DHT22;33199;47.590;8.300;2023-04-21T14:40:46;12.00;74.50
30594;DHT22;33199;47.590;8.300;2023-04-21T14:43:14;12.00;73.70
30594;DHT22;33199;47.590;8.300;2023-04-21T14:45:39;12.00;74.50
30594;DHT22;33199;47.590;8.300;2023-04-21T14:48:05;12.00;74.50
30594;DHT22;33199;47.590;8.300;2023-04-21T14:50:36;12.00;73.70
30594;DHT22;33199;47.590;8.300;2023-04-21T14:53:01;12.00;73.90
30594;DHT22;33199;47.590;8.300;2023-04-21T14:55:27;12.00;73.80
30594;DHT22;33199;47.590;8.300;2023-04-21T14:57:53;12.00;73.80
30594;DHT22;33199;47.590;8.300;2023-04-21T15:00:19;12.00;73.70
30594;DHT22;33199;47.590;8.300;2023-04-21T15:02:44;12.00;73.80
30594;DHT22;33199;47.590;8.300;2023-04-21T15:05:10;12.00;73.70
30594;DHT22;33199;47.590;8.300;2023-04-21T15:07:36;12.00;73.70
30594;DHT22;33199;47.590;8.300;2023-04-21T15:10:01;12.00;73.70
30594;DHT22;33199;47.590;8.300;2023-04-21T15:12:27;12.00;73.70
30594;DHT22;33199;47.590;8.300;2023-04-21T15:14:53;12.00;73.70
30594;DHT22;33199;47.590;8.300;2023-04-21T15:17:18;12.00;73.70
30594;DHT22;33199;47.590;8.300;2023-04-21T15:19:44;12.00;73.70
30594;DHT22;33199;47.590;8.300;2023-04-21T15:22:09;12.00;73.70
30594;DHT22;33199;47.590;8.300;2023-04-21T15:24:36;12.00;73.70
30594;DHT22;33199;47.590;8.300;2023-04-21T15:27:02;12.00;73.70
30594;DHT22;33199;47.590;8.300;2023-04-21T15:29:28;12.10;73.80
30594;DHT22;33199;47.590;8.300;2023-04-21T15:31:54;12.00;73.70
30594;DHT22;33199;47.590;8.300;2023-04-21T15:34:19;12.00;73.70
30594;DHT22;33199;47.590;8.300;2023-04-21T15:36:45;12.00;73.70
30594;DHT22;33199;47.590;8.300;2023-04-21T15:39:11;12.10;73.80
30594;DHT22;33199;47.590;8.300;2023-04-21T15:41:39;12.00;73.70
30594;DHT22;33199;47.590;8.300;2023-04-21T15:44:05;12.00;73.70
30594;DHT22;33199;47.590;8.300;2023-04-21T15:46:31;12.00;73.60
30594;DHT22;33199;47.590;8.300;2023-04-21T15:48:58;12.00;73.60
30594;DHT22;33199;47.590;8.300;2023-04-21T15:51:24;12.10;73.70